Athol, Massachusetts
Current Conditions -  °F | °C
As of 4:52 AM on Sunday 23 Nov 2014 (Local Time) from KORE Reporting Station
Scattered Clouds Scattered Clouds  
Wind Chill: 36°   Ceiling: Unl
Heat Index: 39°   Visibility: 10mi
Dew Point: 26°   Wind: 5mph
Humidity: 60%   Direction: 170°S
Pressure: 30.08"   Gusts: NA
Location:  42.59°N, 72.23°W
Report Text: KORE 230952Z AUTO 17004KT 10SM FEW034 SCT100 04/M03 A3008 RMK AO2 SLP192 T00391033
Loading
Personal Weather Stations






























Interactive Weather Map New forecast layout! Learn more

10-Day Weather Forecast

Advertisements
Track Severe Weather on mobile